createdAt,value
2022-11-27T00:01:29.282Z,102388.38
2022-11-27T00:03:56.997Z,102382.25
2022-11-27T00:06:26.219Z,102382.25
2022-11-27T00:08:53.456Z,102374.34
2022-11-27T00:11:22.590Z,102372.63
2022-11-27T00:13:50.577Z,102372.63
2022-11-27T00:16:18.785Z,102372.59
2022-11-27T00:18:46.432Z,102379.63
2022-11-27T00:21:22.762Z,102374.38
2022-11-27T00:23:50.814Z,102381.34
2022-11-27T00:26:18.448Z,102373.47
2022-11-27T00:28:45.680Z,102369.13
2022-11-27T00:31:19.154Z,102363.00
2022-11-27T00:33:46.682Z,102371.75
2022-11-27T00:36:14.704Z,102376.13
2022-11-27T00:38:42.428Z,102376.09
2022-11-27T00:41:17.886Z,102372.59
2022-11-27T00:43:45.758Z,102368.22
2022-11-27T00:46:18.076Z,102364.75
2022-11-27T00:48:48.544Z,102380.47
2022-11-27T00:51:19.190Z,102372.59
2022-11-27T00:53:46.573Z,102366.47
2022-11-27T00:56:31.334Z,102360.38
2022-11-27T00:58:58.558Z,102357.72
2022-11-27T01:01:31.234Z,102353.34
2022-11-27T01:03:59.610Z,102348.97
2022-11-27T01:06:27.503Z,102343.69
2022-11-27T01:08:54.962Z,102349.78
2022-11-27T01:11:28.007Z,102343.63
2022-11-27T01:13:58.295Z,102355.84
2022-11-27T01:16:27.196Z,102347.91
2022-11-27T01:18:57.626Z,102344.41
2022-11-27T01:21:26.390Z,102343.47
2022-11-27T01:23:54.600Z,102346.91
2022-11-27T01:26:22.509Z,102330.25
2022-11-27T01:28:52.911Z,102323.25
2022-11-27T01:31:22.633Z,102322.34
2022-11-27T01:33:53.970Z,102320.56
2022-11-27T01:36:21.276Z,102326.59
2022-11-27T01:38:48.726Z,102326.56
2022-11-27T01:41:36.672Z,102323.88
2022-11-27T01:44:25.618Z,102324.72
2022-11-27T01:46:57.213Z,102311.63
2022-11-27T01:49:37.167Z,102308.97
2022-11-27T01:52:08.801Z,102298.41
2022-11-27T01:54:41.788Z,102287.91
2022-11-27T01:57:14.140Z,102284.34
2022-11-27T01:59:41.746Z,102289.53
2022-11-27T02:02:08.970Z,102292.97
2022-11-27T02:04:36.165Z,102292.06
2022-11-27T02:07:03.534Z,102295.53
2022-11-27T02:09:31.203Z,102293.72
2022-11-27T02:12:33.633Z,102292.81
2022-11-27T02:15:08.266Z,102297.09
2022-11-27T02:17:49.835Z,102301.41
2022-11-27T02:20:53.330Z,102298.72
2022-11-27T02:23:48.041Z,102308.25
2022-11-27T02:26:24.243Z,102311.72
2022-11-27T02:29:08.199Z,102311.69
2022-11-27T02:31:57.115Z,102309.88
2022-11-27T02:34:47.122Z,102302.84
2022-11-27T02:37:32.798Z,102310.63
2022-11-27T02:40:27.614Z,102314.06
2022-11-27T02:43:09.014Z,102319.28
2022-11-27T02:45:40.765Z,102319.22
2022-11-27T02:48:09.351Z,102311.31
2022-11-27T02:50:38.499Z,102319.97
2022-11-27T02:53:10.959Z,102326.00
2022-11-27T02:55:39.124Z,102321.66
2022-11-27T02:58:10.351Z,102310.38
2022-11-27T03:00:38.454Z,102310.41
2022-11-27T03:03:08.591Z,102300.88
2022-11-27T03:05:39.864Z,102302.53
2022-11-27T03:08:54.918Z,102300.88
2022-11-27T03:11:22.440Z,102297.41
2022-11-27T03:13:53.603Z,102296.56
2022-11-27T03:16:35.972Z,102287.06
2022-11-27T03:19:12.162Z,102285.41
2022-11-27T03:21:41.523Z,102287.09
2022-11-27T03:24:08.709Z,102287.06
2022-11-27T03:26:36.334Z,102288.72
2022-11-27T03:29:07.075Z,102282.50
2022-11-27T03:31:34.427Z,102284.97
2022-11-27T03:34:01.764Z,102288.47
2022-11-27T03:36:28.966Z,102288.41
2022-11-27T03:38:56.281Z,102290.91
2022-11-27T03:41:48.047Z,102297.91
2022-11-27T03:44:30.627Z,102293.38
2022-11-27T03:47:25.872Z,102301.25
2022-11-27T03:49:55.987Z,102294.94
2022-11-27T03:52:51.613Z,102289.81
2022-11-27T03:55:51.347Z,102293.22
2022-11-27T03:58:28.038Z,102286.19
2022-11-27T04:00:55.665Z,102287.91
2022-11-27T04:03:28.646Z,102282.72
2022-11-27T04:05:56.260Z,102285.34
2022-11-27T04:08:23.784Z,102285.34
2022-11-27T04:10:51.010Z,102281.69
2022-11-27T04:13:18.223Z,102278.88
2022-11-27T04:15:45.530Z,102283.13
2022-11-27T04:18:12.787Z,102279.59
2022-11-27T04:20:40.011Z,102275.09
2022-11-27T04:23:07.307Z,102279.34
2022-11-27T04:25:34.874Z,102274.19
2022-11-27T04:28:02.093Z,102269.84
2022-11-27T04:30:29.274Z,102268.97
2022-11-27T04:32:56.479Z,102268.78
2022-11-27T04:35:23.679Z,102273.94
2022-11-27T04:37:50.895Z,102278.31
2022-11-27T04:40:18.256Z,102269.47
2022-11-27T04:42:45.506Z,102273.88
2022-11-27T04:45:12.694Z,102267.69
2022-11-27T04:47:39.910Z,102275.41
2022-11-27T04:50:08.027Z,102273.75
2022-11-27T04:52:35.460Z,102271.06
2022-11-27T04:55:02.968Z,102285.75
2022-11-27T04:57:30.232Z,102282.25
2022-11-27T04:59:57.439Z,102289.22
2022-11-27T05:02:24.751Z,102274.38
2022-11-27T05:04:52.082Z,102278.59
2022-11-27T05:07:19.364Z,102276.84
2022-11-27T05:09:46.614Z,102280.22
2022-11-27T05:12:13.884Z,102279.28
2022-11-27T05:14:41.296Z,102278.34
2022-11-27T05:17:09.924Z,102278.22
2022-11-27T05:19:37.197Z,102271.06
2022-11-27T05:22:04.453Z,102283.16
2022-11-27T05:24:31.711Z,102290.09
2022-11-27T05:26:59.128Z,102288.22
2022-11-27T05:29:26.810Z,102275.03
2022-11-27T05:31:54.108Z,102270.63
2022-11-27T05:34:21.505Z,102275.88
2022-11-27T05:36:48.766Z,102279.38
2022-11-27T05:39:16.172Z,102280.28
2022-11-27T05:41:43.872Z,102275.06
2022-11-27T05:44:13.358Z,102272.34
2022-11-27T05:46:40.666Z,102270.56
2022-11-27T05:49:07.912Z,102263.56
2022-11-27T05:51:35.087Z,102263.75
2022-11-27T05:54:02.300Z,102263.81
2022-11-27T05:56:29.512Z,102259.28
2022-11-27T05:58:56.700Z,102262.56
2022-11-27T06:01:23.939Z,102253.66
2022-11-27T06:03:51.214Z,102255.63
2022-11-27T06:06:19.881Z,102251.34
2022-11-27T06:08:47.801Z,102244.41
2022-11-27T06:11:17.511Z,102240.88
2022-11-27T06:13:45.453Z,102239.00
2022-11-27T06:16:17.360Z,102245.03
2022-11-27T06:18:44.753Z,102247.56
2022-11-27T06:21:14.264Z,102257.16
2022-11-27T06:23:42.819Z,102256.22
2022-11-27T06:26:31.068Z,102255.22
2022-11-27T06:28:59.417Z,102254.34
2022-11-27T06:31:28.509Z,102254.22
2022-11-27T06:33:56.960Z,102251.75
2022-11-27T06:36:27.774Z,102249.09
2022-11-27T06:38:55.002Z,102250.09
2022-11-27T06:41:24.771Z,102247.44
2022-11-27T06:43:52.033Z,102255.97
2022-11-27T06:46:20.891Z,102244.75
2022-11-27T06:48:49.741Z,102251.88
2022-11-27T06:51:20.801Z,102258.91
2022-11-27T06:53:48.170Z,102251.97
2022-11-27T06:56:18.856Z,102245.81
2022-11-27T06:58:46.389Z,102245.50
2022-11-27T07:01:16.369Z,102243.47
2022-11-27T07:03:45.650Z,102224.28
2022-11-27T07:06:15.275Z,102219.84
2022-11-27T07:08:43.259Z,102219.88
2022-11-27T07:11:16.609Z,102223.47
2022-11-27T07:13:44.008Z,102225.28
2022-11-27T07:16:13.465Z,102222.03
2022-11-27T07:18:45.912Z,102222.88
2022-11-27T07:21:13.264Z,102225.63
2022-11-27T07:23:40.653Z,102220.06
2022-11-27T07:26:13.205Z,102219.47
2022-11-27T07:28:40.530Z,102224.81
2022-11-27T07:31:08.032Z,102216.94
2022-11-27T07:33:35.464Z,102216.00
2022-11-27T07:36:15.776Z,102215.94
2022-11-27T07:38:43.806Z,102215.88
2022-11-27T07:41:11.409Z,102211.63
2022-11-27T07:43:39.218Z,102204.75
2022-11-27T07:46:08.362Z,102201.94
2022-11-27T07:48:35.605Z,102202.16
2022-11-27T07:51:05.441Z,102203.06
2022-11-27T07:53:35.107Z,102212.78
2022-11-27T07:56:02.458Z,102212.88
2022-11-27T07:58:29.849Z,102221.59
2022-11-27T08:00:57.080Z,102217.22
2022-11-27T08:03:24.752Z,102228.28
2022-11-27T08:05:52.295Z,102217.81
2022-11-27T08:08:19.587Z,102224.03
2022-11-27T08:10:46.795Z,102209.16
2022-11-27T08:13:14.082Z,102203.13
2022-11-27T08:15:41.365Z,102199.56
2022-11-27T08:18:08.790Z,102208.34
2022-11-27T08:20:36.992Z,102204.06
2022-11-27T08:23:04.641Z,102205.88
2022-11-27T08:25:32.482Z,102201.41
2022-11-27T08:27:59.812Z,102187.56
2022-11-27T08:30:27.049Z,102199.78
2022-11-27T08:32:54.282Z,102185.25
2022-11-27T08:35:22.589Z,102195.72
2022-11-27T08:37:50.067Z,102189.69
2022-11-27T08:40:17.557Z,102198.44
2022-11-27T08:42:44.826Z,102189.88
2022-11-27T08:45:12.194Z,102194.28
2022-11-27T08:47:39.440Z,102188.97
2022-11-27T08:50:07.386Z,102180.47
2022-11-27T08:52:34.905Z,102178.91
2022-11-27T08:55:02.229Z,102173.75
2022-11-27T08:57:31.736Z,102178.28
2022-11-27T08:59:59.240Z,102176.63
2022-11-27T09:02:26.501Z,102190.69
2022-11-27T09:04:53.836Z,102180.28
2022-11-27T09:07:21.239Z,102178.66
2022-11-27T09:09:48.734Z,102179.63
2022-11-27T09:12:16.037Z,102177.25
2022-11-27T09:14:43.550Z,102164.25
2022-11-27T09:17:11.835Z,102168.69
2022-11-27T09:19:39.127Z,102179.31
2022-11-27T09:22:06.580Z,102177.56
2022-11-27T09:24:35.955Z,102168.09
2022-11-27T09:27:03.162Z,102164.84
2022-11-27T09:29:30.431Z,102161.53
2022-11-27T09:31:57.918Z,102157.41
2022-11-27T09:34:25.301Z,102158.34
2022-11-27T09:36:52.664Z,102156.63
2022-11-27T09:39:20.323Z,102158.50
2022-11-27T09:41:54.345Z,102157.81
2022-11-27T09:44:40.874Z,102152.63
2022-11-27T09:47:17.319Z,102158.72
2022-11-27T09:49:52.594Z,102151.09
2022-11-27T09:52:42.238Z,102156.22
2022-11-27T09:55:25.315Z,102147.63
2022-11-27T09:58:06.285Z,102150.34
2022-11-27T10:00:34.006Z,102157.47
2022-11-27T10:03:01.407Z,102158.44
2022-11-27T10:05:43.610Z,102152.34
2022-11-27T10:08:27.971Z,102156.56
2022-11-27T10:10:58.262Z,102144.41
2022-11-27T10:13:46.828Z,102144.53
2022-11-27T10:16:34.049Z,102139.34
2022-11-27T10:19:24.324Z,102128.06
2022-11-27T10:22:15.416Z,102134.25
2022-11-27T10:25:11.492Z,102135.16
2022-11-27T10:27:51.980Z,102130.81
2022-11-27T10:30:21.391Z,102137.84
2022-11-27T10:32:55.692Z,102130.06
2022-11-27T10:35:29.318Z,102131.00
2022-11-27T10:38:12.067Z,102126.63
2022-11-27T10:40:48.924Z,102126.69
2022-11-27T10:43:18.754Z,102124.09
2022-11-27T10:45:50.392Z,102113.59
2022-11-27T10:48:18.010Z,102104.03
2022-11-27T10:50:48.389Z,102101.53
2022-11-27T10:53:31.048Z,102105.00
2022-11-27T10:56:16.119Z,102099.81
2022-11-27T10:58:53.073Z,102101.56
2022-11-27T11:01:21.643Z,102097.22
2022-11-27T11:03:49.195Z,102101.59
2022-11-27T11:06:24.167Z,102113.81
2022-11-27T11:09:15.461Z,102107.72
2022-11-27T11:11:42.666Z,102088.56
2022-11-27T11:14:22.867Z,102103.41
2022-11-27T11:16:51.179Z,102095.53
2022-11-27T11:19:29.595Z,102093.75
2022-11-27T11:21:58.430Z,102087.59
2022-11-27T11:24:29.878Z,102081.44
2022-11-27T11:27:17.599Z,102076.13
2022-11-27T11:29:56.600Z,102072.72
2022-11-27T11:32:26.924Z,102065.78
2022-11-27T11:35:00.550Z,102059.63
2022-11-27T11:37:35.455Z,102061.34
2022-11-27T11:40:23.059Z,102066.59
2022-11-27T11:43:06.662Z,102068.41
2022-11-27T11:45:35.407Z,102062.31
2022-11-27T11:48:17.077Z,102063.19
2022-11-27T11:51:08.435Z,102061.44
2022-11-27T11:53:45.499Z,102062.34
2022-11-27T11:56:26.411Z,102066.69
2022-11-27T11:59:00.426Z,102053.63
2022-11-27T12:01:57.537Z,102052.75
2022-11-27T12:04:49.911Z,102050.13
2022-11-27T12:07:40.826Z,102043.16
2022-11-27T12:10:17.322Z,102040.53
2022-11-27T12:13:05.137Z,102031.81
2022-11-27T12:15:38.023Z,102028.28
2022-11-27T12:18:39.224Z,102025.66
2022-11-27T12:21:20.338Z,102017.78
2022-11-27T12:24:17.038Z,102009.91
2022-11-27T12:27:16.851Z,102002.94
2022-11-27T12:30:03.073Z,101999.41
2022-11-27T12:33:05.447Z,101995.06
2022-11-27T12:35:42.843Z,101988.94
2022-11-27T12:38:28.896Z,101975.84
2022-11-27T12:41:15.073Z,101978.44
2022-11-27T12:43:46.525Z,101968.84
2022-11-27T12:46:20.193Z,101964.50
2022-11-27T12:49:11.514Z,101961.00
2022-11-27T12:51:43.269Z,101965.41
2022-11-27T12:54:14.822Z,101965.41
2022-11-27T12:56:52.252Z,101962.78
2022-11-27T12:59:33.767Z,101962.81
2022-11-27T13:02:19.283Z,101963.69
2022-11-27T13:05:05.637Z,101970.69
2022-11-27T13:07:43.500Z,101962.84
2022-11-27T13:10:11.795Z,101959.34
2022-11-27T13:13:02.289Z,101945.38
2022-11-27T13:15:43.343Z,101941.91
2022-11-27T13:18:34.384Z,101934.03
2022-11-27T13:21:08.018Z,101941.03
2022-11-27T13:23:36.206Z,101934.94
2022-11-27T13:26:31.530Z,101926.22
2022-11-27T13:29:05.491Z,101921.84
2022-11-27T13:31:37.587Z,101911.38
2022-11-27T13:34:22.307Z,101913.97
2022-11-27T13:36:57.463Z,101917.47
2022-11-27T13:39:34.073Z,101904.41
2022-11-27T13:42:09.183Z,101909.63
2022-11-27T13:44:40.365Z,101909.63
2022-11-27T13:47:13.495Z,101906.16
2022-11-27T13:49:42.044Z,101907.88
2022-11-27T13:52:18.171Z,101899.16
2022-11-27T13:54:59.854Z,101902.69
2022-11-27T13:57:28.305Z,101898.31
2022-11-27T14:00:13.157Z,101894.84
2022-11-27T14:02:45.543Z,101893.94
2022-11-27T14:05:14.938Z,101895.69
2022-11-27T14:07:49.061Z,101896.56
2022-11-27T14:10:20.724Z,101886.97
2022-11-27T14:13:03.355Z,101894.84
2022-11-27T14:15:31.904Z,101899.19
2022-11-27T14:18:17.861Z,101895.69
2022-11-27T14:20:55.527Z,101893.94
2022-11-27T14:23:50.546Z,101890.44
2022-11-27T14:26:21.790Z,101893.06
2022-11-27T14:28:59.557Z,101893.94
2022-11-27T14:31:32.028Z,101890.44
2022-11-27T14:34:19.641Z,101890.44
2022-11-27T14:36:52.776Z,101888.69
2022-11-27T14:39:25.117Z,101884.31
2022-11-27T14:42:03.910Z,101888.69
2022-11-27T14:44:31.501Z,101885.19
2022-11-27T14:47:01.157Z,101875.59
2022-11-27T14:49:30.120Z,101882.53
2022-11-27T14:52:04.000Z,101880.81
2022-11-27T14:54:39.582Z,101873.81
2022-11-27T14:57:07.335Z,101865.97
2022-11-27T14:59:34.631Z,101875.53
2022-11-27T15:02:15.887Z,101877.28
2022-11-27T15:04:44.768Z,101870.31
2022-11-27T15:07:23.181Z,101877.31
2022-11-27T15:09:52.973Z,101857.22
2022-11-27T15:12:32.775Z,101858.13
2022-11-27T15:15:07.607Z,101852.00
2022-11-27T15:17:37.093Z,101858.94
2022-11-27T15:20:16.260Z,101851.13
2022-11-27T15:22:51.950Z,101842.38
2022-11-27T15:25:38.462Z,101850.22
2022-11-27T15:28:27.793Z,101855.44
2022-11-27T15:30:55.529Z,101856.31
2022-11-27T15:33:28.572Z,101855.41
2022-11-27T15:36:19.790Z,101851.97
2022-11-27T15:38:47.487Z,101849.31
2022-11-27T15:41:23.423Z,101837.97
2022-11-27T15:43:50.829Z,101844.94
2022-11-27T15:46:26.025Z,101845.78
2022-11-27T15:48:53.659Z,101836.25
2022-11-27T15:51:20.930Z,101835.34
2022-11-27T15:53:48.809Z,101833.59
2022-11-27T15:56:16.432Z,101831.00
2022-11-27T15:58:43.702Z,101832.72
2022-11-27T16:01:11.700Z,101829.22
2022-11-27T16:03:40.068Z,101829.22
2022-11-27T16:06:08.492Z,101813.56
2022-11-27T16:08:36.214Z,101819.66
2022-11-27T16:11:05.813Z,101807.47
2022-11-27T16:13:33.085Z,101805.72
2022-11-27T16:16:05.189Z,101803.97
2022-11-27T16:18:33.092Z,101803.13
2022-11-27T16:21:05.254Z,101800.50
2022-11-27T16:23:32.853Z,101797.88
2022-11-27T16:26:00.407Z,101800.53
2022-11-27T16:28:28.943Z,101791.78
2022-11-27T16:30:58.081Z,101799.63
2022-11-27T16:33:29.873Z,101799.63
2022-11-27T16:36:03.766Z,101795.28
2022-11-27T16:38:30.990Z,101788.34
2022-11-27T16:41:06.203Z,101785.75
2022-11-27T16:43:38.921Z,101791.84
2022-11-27T16:46:14.159Z,101785.75
2022-11-27T16:48:42.524Z,101784.03
2022-11-27T16:51:21.716Z,101778.78
2022-11-27T16:53:51.175Z,101772.66
2022-11-27T16:56:20.513Z,101769.19
2022-11-27T16:58:48.239Z,101765.69
2022-11-27T17:01:21.662Z,101764.84
2022-11-27T17:03:49.351Z,101759.59
2022-11-27T17:06:22.123Z,101757.81
2022-11-27T17:08:49.709Z,101756.09
2022-11-27T17:11:22.856Z,101750.88
2022-11-27T17:13:50.789Z,101746.50
2022-11-27T17:16:19.658Z,101743.91
2022-11-27T17:18:47.191Z,101737.84
2022-11-27T17:21:32.598Z,101737.81
2022-11-27T17:24:02.528Z,101737.78
2022-11-27T17:26:31.233Z,101736.03
2022-11-27T17:28:59.534Z,101728.16
2022-11-27T17:31:33.542Z,101726.44
2022-11-27T17:34:01.262Z,101721.22
2022-11-27T17:36:35.153Z,101725.59
2022-11-27T17:39:05.405Z,101717.75
2022-11-27T17:41:32.718Z,101719.47
2022-11-27T17:44:00.490Z,101718.59
2022-11-27T17:46:28.859Z,101710.75
2022-11-27T17:48:58.938Z,101707.31
2022-11-27T17:51:32.195Z,101703.78
2022-11-27T17:54:03.939Z,101701.19
2022-11-27T17:56:31.193Z,101689.91
2022-11-27T17:58:59.972Z,101686.41
2022-11-27T18:01:29.381Z,101686.44
2022-11-27T18:04:01.069Z,101677.72
2022-11-27T18:06:28.512Z,101679.47
2022-11-27T18:08:58.160Z,101678.59
2022-11-27T18:11:28.109Z,101676.00
2022-11-27T18:13:55.464Z,101669.91
2022-11-27T18:16:25.398Z,101669.03
2022-11-27T18:18:54.214Z,101677.75
2022-11-27T18:21:22.204Z,101672.53
2022-11-27T18:24:21.474Z,101662.09
2022-11-27T18:29:25.081Z,101669.03
2022-11-27T18:31:53.354Z,101672.53
2022-11-27T18:34:20.758Z,101669.91
2022-11-27T18:36:47.992Z,101661.22
2022-11-27T18:39:15.682Z,101673.38
2022-11-27T18:41:42.888Z,101662.91
2022-11-27T18:44:10.143Z,101667.25
2022-11-27T18:46:37.742Z,101662.06
2022-11-27T18:49:05.474Z,101665.53
2022-11-27T18:51:32.918Z,101656.81
2022-11-27T18:54:00.166Z,101670.75
2022-11-27T18:56:30.810Z,101667.22
2022-11-27T18:59:03.095Z,101663.75
2022-11-27T19:01:36.704Z,101648.94
2022-11-27T19:04:07.316Z,101649.78
2022-11-27T19:06:36.921Z,101654.09
2022-11-27T19:09:04.579Z,101645.38
2022-11-27T19:11:32.814Z,101643.63
2022-11-27T19:14:00.433Z,101635.81
2022-11-27T19:16:31.284Z,101634.03
2022-11-27T19:19:00.337Z,101631.41
2022-11-27T19:21:29.929Z,101638.34
2022-11-27T19:23:58.598Z,101644.44
2022-11-27T19:26:31.710Z,101634.03
2022-11-27T19:29:02.587Z,101632.28
2022-11-27T19:31:30.773Z,101638.34
2022-11-27T19:34:00.032Z,101625.31
2022-11-27T19:36:28.864Z,101630.50
2022-11-27T19:39:06.634Z,101634.00
2022-11-27T19:41:34.639Z,101622.69
2022-11-27T19:44:04.616Z,101620.13
2022-11-27T19:46:37.167Z,101629.66
2022-11-27T19:49:07.089Z,101625.31
2022-11-27T19:51:37.290Z,101624.44
2022-11-27T19:54:09.892Z,101621.81
2022-11-27T19:56:40.129Z,101625.28
2022-11-27T19:59:08.518Z,101623.50
2022-11-27T20:01:37.672Z,101619.16
2022-11-27T20:04:05.382Z,101623.47
2022-11-27T20:06:32.639Z,101622.63
2022-11-27T20:09:01.944Z,101619.09
2022-11-27T20:11:34.092Z,101619.06
2022-11-27T20:14:02.565Z,101620.78
2022-11-27T20:16:30.265Z,101609.44
2022-11-27T20:18:57.606Z,101624.22
2022-11-27T20:21:26.176Z,101616.34
2022-11-27T20:23:54.577Z,101615.47
2022-11-27T20:26:25.406Z,101623.31
2022-11-27T20:28:53.258Z,101617.19
2022-11-27T20:31:25.832Z,101609.41
2022-11-27T20:33:55.572Z,101615.41
2022-11-27T20:36:24.242Z,101617.13
2022-11-27T20:38:52.330Z,101616.25
2022-11-27T20:41:21.442Z,101611.88
2022-11-27T20:43:53.280Z,101604.91
2022-11-27T20:46:20.610Z,101604.03
2022-11-27T20:48:49.139Z,101601.38
2022-11-27T20:51:19.855Z,101591.81
2022-11-27T20:53:48.164Z,101584.84
2022-11-27T20:56:17.534Z,101583.97
2022-11-27T20:58:45.146Z,101578.72
2022-11-27T21:01:24.695Z,101580.47
2022-11-27T21:03:53.567Z,101579.59
2022-11-27T21:06:24.645Z,101583.06
2022-11-27T21:08:52.462Z,101582.25
2022-11-27T21:11:25.432Z,101569.22
2022-11-27T21:13:57.715Z,101574.41
2022-11-27T21:16:26.928Z,101571.72
2022-11-27T21:18:55.153Z,101563.03
2022-11-27T21:21:22.946Z,101563.06
2022-11-27T21:23:50.710Z,101559.59
2022-11-27T21:26:18.268Z,101550.03
2022-11-27T21:28:51.424Z,101543.91
2022-11-27T21:31:21.993Z,101547.38
2022-11-27T21:33:54.363Z,101546.50
2022-11-27T21:36:23.147Z,101552.59
2022-11-27T21:38:50.776Z,101542.22
2022-11-27T21:41:18.256Z,101541.31
2022-11-27T21:43:46.949Z,101541.34
2022-11-27T21:46:20.051Z,101544.81
2022-11-27T21:48:48.401Z,101533.53
2022-11-27T21:51:16.314Z,101541.34
2022-11-27T21:53:45.176Z,101535.25
2022-11-27T21:56:14.379Z,101536.13
2022-11-27T21:58:42.017Z,101527.44
2022-11-27T22:01:14.390Z,101527.44
2022-11-27T22:03:42.913Z,101530.00
2022-11-27T22:06:17.648Z,101528.28
2022-11-27T22:08:46.600Z,101524.78
2022-11-27T22:11:16.887Z,101528.25
2022-11-27T22:13:44.578Z,101529.13
2022-11-27T22:16:22.426Z,101528.28
2022-11-27T22:18:50.048Z,101538.63
2022-11-27T22:21:17.603Z,101525.59
2022-11-27T22:23:45.571Z,101523.88
2022-11-27T22:26:14.975Z,101522.13
2022-11-27T22:28:42.329Z,101522.09
2022-11-27T22:31:15.657Z,101517.78
2022-11-27T22:33:44.039Z,101516.94
2022-11-27T22:36:14.496Z,101522.16
2022-11-27T22:38:42.742Z,101519.63
2022-11-27T22:41:10.635Z,101512.72
2022-11-27T22:43:38.827Z,101515.31
2022-11-27T22:46:10.311Z,101518.84
2022-11-27T22:48:37.918Z,101511.91
2022-11-27T22:51:05.328Z,101517.97
2022-11-27T22:53:32.800Z,101502.41
2022-11-27T22:56:08.463Z,101509.38
2022-11-27T22:58:40.951Z,101499.81
2022-11-27T23:01:13.135Z,101507.66
2022-11-27T23:03:40.706Z,101509.41
2022-11-27T23:06:11.928Z,101511.13
2022-11-27T23:08:40.676Z,101505.94
2022-11-27T23:11:08.939Z,101508.56
2022-11-27T23:13:36.305Z,101502.50
2022-11-27T23:16:06.032Z,101495.50
2022-11-27T23:18:34.312Z,101497.25
2022-11-27T23:21:06.464Z,101494.69
2022-11-27T23:23:35.074Z,101495.50
2022-11-27T23:26:16.171Z,101492.94
2022-11-27T23:28:47.603Z,101494.69
2022-11-27T23:31:36.187Z,101489.50
2022-11-27T23:34:07.489Z,101485.97
2022-11-27T23:36:35.280Z,101475.56
2022-11-27T23:39:04.140Z,101475.63
2022-11-27T23:41:31.366Z,101479.09
2022-11-27T23:44:01.451Z,101470.34
2022-11-27T23:46:29.887Z,101476.44
2022-11-27T23:48:59.560Z,101464.31
2022-11-27T23:51:29.214Z,101464.31
2022-11-27T23:53:56.951Z,101468.63
2022-11-27T23:56:32.430Z,101461.69
2022-11-27T23:59:00.395Z,101457.34
